Terminal Aerodrome Forecast
Issued by NWS

Home | Current Version | Previous Version | Graphics & Text | Print | Product List | Glossary On
Versions: 1 2 3 4 5 6 7 8 9 10 11 12 13
000
FTUS45 KGGW 221121
TAFOLF
TAF
KOLF 221121Z 2212/2312 07014KT P6SM VCSH OVC040
     FM221400 07015KT P6SM -RA OVC030
     FM230600 08015KT P6SM RA OVC020=

USA.gov is the U.S. government's official web portal to all federal, state and local government web resources and services.